Airfield :
LOGIN :

Register | Disclaimer

   EN    FR    IT 

 










Legend :    VFR   Marginal VFR   IFR   Intensive IFR   Very Intensive IFR
Visi :
Ceiling :
>= 8 km
>= 3000ft
5 to 8 km
1000 to 3000 ft
1500m to 5 km
500 to 1000 ft
800 to 1500m
200 to 500 ft
< 800m
< 200 ft
Symbols :   Thunderstorms  Fog  Heavy snow  Heavy precipitations  Wind > 20 kt
SIGMETs :     Misc.  Thunderstorms  Icing  Turbulence  Mountain Waves  Volcanic Ashes






- Airport Elevation : 55 ft
- IATA code : DSA


EGCN - Robin Hood Doncaster Sheffield

CURRENT METAR :
  • 280620Z 25011KT 9999 FEW020 SCT025 03/00 Q0989

EXPIRED METARs :
  • 280550Z 26011KT 9999 SCT022 04/01 Q0988
  • 280520Z 24010KT 9999 FEW025 03/01 Q0988
  • 280450Z 25010KT 9999 FEW016 SCT030 04/01 Q0987
  • 280420Z 25010KT 9999 FEW025 SCT031 04/02 Q0987
  • 280350Z AUTO 24008KT 9999 NCD 04/01 Q0987

TAF TAF EGCN
Valid from the 28 at 06:00 until the 29 at 06:00 UTC


280504Z 2806/2906 25010KT 9999 FEW014 SCT020
TEMPO 2806/2824 26015G29KT
PROB30
TEMPO 2806/2811 2000 SHRASN BKN004
PROB30
TEMPO 2811/2906 7000 SHRA



MET'MAP, your aeronautical weather chart ! - Copyright ORBIFLY December 2007 - Disclaimer

ORBIFLY MET'MAP TEAM :

Programming & Development : Alexandra Zaïnal
Concept & original design : Baudouin d'Aumeries
Assistance for programming : Marc-Olivier Méhu
Technical & hardware support : Manuel Goepfert

Contact : metmap@orbifly.com




SOURCES & CREDITS :

   NOAA